Time;durP1;ratioP1;P1;durP2;ratioP2;P2;SDS_P1;SDS_P2;PMS_P1;PMS_P2;Temp;Humidity;BMP_temperature;BMP_pressure;BME280_temperature;BME280_humidity;BME280_pressure;Samples;Min_cycle;Max_cycle;Signal;HPM_P1;HPM_P2
2022/01/28 11:10:35;;;;;;;15.03;5.40;;;7.00;99.90;;;;;;5027765;28;20213;-72
2022/01/28 11:13:03;;;;;;;9.60;5.10;;;7.20;99.90;;;;;;5031703;28;20208;-70
2022/01/28 11:15:31;;;;;;;11.10;5.57;;;7.30;99.90;;;;;;5031329;28;20267;-70
2022/01/28 11:18:01;;;;;;;10.53;5.57;;;7.60;99.90;;;;;;5016257;28;20211;-71
2022/01/28 11:20:31;;;;;;;10.87;5.20;;;7.70;99.90;;;;;;5012004;28;20202;-71
2022/01/28 11:23:10;;;;;;;9.80;4.83;;;7.90;99.90;;;;;;5012129;28;20209;-69
2022/01/28 11:25:50;;;;;;;10.20;5.10;;;8.10;99.90;;;;;;5009806;28;20225;-70
2022/01/28 11:28:16;;;;;;;7.60;5.20;;;8.30;99.90;;;;;;5016491;28;20247;-70
2022/01/28 11:30:48;;;;;;;9.40;5.20;;;8.50;99.90;;;;;;5013043;28;20550;-70
2022/01/28 11:33:16;;;;;;;10.07;4.87;;;8.40;99.90;;;;;;5013393;28;20212;-70
2022/01/28 11:36:01;;;;;;;10.53;5.00;;;8.00;99.90;;;;;;5013241;28;20225;-70
2022/01/28 11:38:40;;;;;;;10.77;5.00;;;7.90;99.90;;;;;;5013296;28;20680;-71
2022/01/28 11:41:11;;;;;;;10.37;5.10;;;7.80;99.90;;;;;;5013004;28;20763;-72
2022/01/28 11:43:46;;;;;;;8.70;4.97;;;7.80;99.90;;;;;;5016357;28;20208;-70
2022/01/28 11:46:20;;;;;;;11.07;5.40;;;7.80;99.90;;;;;;5013051;28;20233;-71
2022/01/28 11:49:22;;;;;;;12.03;5.50;;;8.10;99.90;;;;;;5013073;28;20242;-71
2022/01/28 11:51:50;;;;;;;8.67;4.80;;;8.20;99.90;;;;;;5013100;28;20205;-71
2022/01/28 11:54:21;;;;;;;8.77;4.90;;;8.10;99.90;;;;;;5012990;28;20210;-71
2022/01/28 11:57:15;;;;;;;9.47;4.67;;;7.90;99.90;;;;;;5013048;28;20225;-71
2022/01/28 11:59:42;;;;;;;10.13;5.37;;;7.80;99.90;;;;;;5024288;28;20292;-70
2022/01/28 12:02:15;;;;;;;9.77;4.57;;;7.80;99.90;;;;;;5033663;28;20689;-70
2022/01/28 12:04:44;;;;;;;12.07;4.90;;;7.80;99.90;;;;;;5036833;28;20580;-71
2022/01/28 12:07:14;;;;;;;8.80;4.93;;;7.90;99.90;;;;;;5036583;28;20228;-71
2022/01/28 12:09:43;;;;;;;11.43;4.93;;;7.90;99.90;;;;;;5036394;28;20235;-71
2022/01/28 12:12:12;;;;;;;10.63;5.80;;;7.80;99.90;;;;;;5036448;28;20201;-71
2022/01/28 12:15:12;;;;;;;11.50;5.47;;;7.80;99.90;;;;;;5031635;28;20201;-71
2022/01/28 12:17:44;;;;;;;10.50;4.90;;;7.90;99.90;;;;;;5036913;28;20201;-71
2022/01/28 12:20:24;;;;;;;12.67;5.30;;;7.90;99.90;;;;;;5036381;28;20589;-71
2022/01/28 12:23:05;;;;;;;11.37;5.03;;;8.00;99.90;;;;;;5036571;28;20672;-71
2022/01/28 12:25:49;;;;;;;15.07;6.07;;;7.90;99.90;;;;;;5036384;28;20709;-71
2022/01/28 12:28:18;;;;;;;12.67;5.60;;;7.70;99.90;;;;;;5036508;28;20784;-71
2022/01/28 12:30:48;;;;;;;12.73;5.93;;;7.80;99.90;;;;;;5036545;28;20209;-70
2022/01/28 12:33:16;;;;;;;13.70;6.37;;;7.90;99.90;;;;;;5031235;28;20662;-70
2022/01/28 12:35:43;;;;;;;11.37;5.93;;;8.00;99.90;;;;;;5036317;28;20235;-70
2022/01/28 12:38:13;;;;;;;13.80;6.40;;;7.90;99.90;;;;;;5036205;28;20296;-70
2022/01/28 12:40:47;;;;;;;14.47;7.07;;;7.90;99.90;;;;;;5036249;28;20222;-70
2022/01/28 12:43:18;;;;;;;13.60;6.70;;;7.90;99.90;;;;;;5035970;28;20200;-71
2022/01/28 12:45:58;;;;;;;14.17;6.77;;;7.80;99.90;;;;;;5019335;28;20234;-71
2022/01/28 12:48:25;;;;;;;17.13;7.47;;;7.70;99.90;;;;;;5014629;28;20232;-70
2022/01/28 12:50:53;;;;;;;15.53;6.47;;;7.50;99.90;;;;;;5015657;28;20225;-69
2022/01/28 12:53:32;;;;;;;15.97;7.57;;;7.50;99.90;;;;;;5014588;28;20205;-69
2022/01/28 12:56:00;;;;;;;15.07;7.10;;;7.40;99.90;;;;;;5014923;28;20232;-70
2022/01/28 12:58:37;;;;;;;15.53;6.50;;;7.50;99.90;;;;;;5019144;28;20213;-71
2022/01/28 13:01:11;;;;;;;17.40;7.07;;;7.80;99.90;;;;;;5014298;28;20557;-70
2022/01/28 13:03:47;;;;;;;14.63;6.43;;;7.60;99.90;;;;;;5014954;28;20215;-67
2022/01/28 13:06:40;;;;;;;16.07;6.80;;;7.70;99.90;;;;;;5014487;28;20225;-68
2022/01/28 13:09:15;;;;;;;18.93;8.73;;;7.80;99.90;;;;;;5014324;28;20233;-69
2022/01/28 13:11:43;;;;;;;18.00;7.60;;;7.60;99.90;;;;;;5014821;28;20688;-68
2022/01/28 13:14:11;;;;;;;17.70;7.10;;;7.70;99.90;;;;;;5013776;28;20209;-68
2022/01/28 13:16:42;;;;;;;17.33;7.07;;;7.80;99.90;;;;;;5014042;28;20272;-68
2022/01/28 13:19:11;;;;;;;16.13;7.77;;;7.60;99.90;;;;;;5014560;28;20206;-69
2022/01/28 13:21:39;;;;;;;17.80;8.27;;;7.70;99.90;;;;;;5013873;28;20210;-70
2022/01/28 13:24:07;;;;;;;16.10;8.57;;;7.60;99.90;;;;;;5014459;28;20678;-69
2022/01/28 13:26:35;;;;;;;19.73;8.17;;;7.70;99.90;;;;;;5014293;28;20226;-70
2022/01/28 13:29:09;;;;;;;16.07;7.07;;;7.70;99.90;;;;;;5013846;28;20241;-69
2022/01/28 13:31:37;;;;;;;22.73;7.57;;;7.80;99.90;;;;;;5017653;28;20650;-69
2022/01/28 13:34:07;;;;;;;19.83;7.63;;;7.30;99.90;;;;;;5013897;28;20205;-69
2022/01/28 13:36:45;;;;;;;19.67;7.80;;;7.40;99.90;;;;;;5013546;28;20240;-70
2022/01/28 13:39:20;;;;;;;16.07;7.37;;;7.30;99.90;;;;;;5014242;28;20210;-70
2022/01/28 13:41:51;;;;;;;20.47;7.63;;;7.30;99.90;;;;;;5014586;28;20296;-69
2022/01/28 13:44:25;;;;;;;20.17;8.47;;;7.30;99.90;;;;;;5013543;28;20570;-69
2022/01/28 13:46:59;;;;;;;17.23;6.87;;;7.40;99.90;;;;;;5013726;28;20590;-71
2022/01/28 13:49:32;;;;;;;16.50;7.50;;;7.40;99.90;;;;;;5025825;28;20228;-70
2022/01/28 13:52:11;;;;;;;20.57;7.73;;;7.50;99.90;;;;;;5033058;28;20201;-70
2022/01/28 13:54:38;;;;;;;18.50;7.30;;;7.40;99.90;;;;;;5029914;28;20589;-70
2022/01/28 13:57:07;;;;;;;25.27;7.97;;;7.50;99.90;;;;;;5013812;28;20232;-70
2022/01/28 13:59:35;;;;;;;15.23;7.43;;;7.60;99.90;;;;;;5026982;28;20351;-70
2022/01/28 14:02:04;;;;;;;22.43;8.50;;;7.60;99.90;;;;;;4993776;28;20686;-69
2022/01/28 14:04:35;;;;;;;14.80;6.57;;;7.60;99.90;;;;;;4996492;28;20942;-69
2022/01/28 14:07:14;;;;;;;16.97;6.87;;;7.50;99.90;;;;;;5012877;28;20230;-71
2022/01/28 14:09:56;;;;;;;19.10;6.83;;;7.50;99.90;;;;;;5013196;28;20243;-70
2022/01/28 14:12:34;;;;;;;20.93;7.63;;;7.40;99.90;;;;;;5013524;28;20745;-70
2022/01/28 14:15:10;;;;;;;15.57;6.83;;;7.60;99.90;;;;;;5012878;28;20300;-70
2022/01/28 14:17:38;;;;;;;19.27;6.63;;;7.70;99.90;;;;;;5025084;28;20208;-70
2022/01/28 14:20:08;;;;;;;15.80;6.70;;;7.80;99.90;;;;;;5033046;28;20247;-70
2022/01/28 14:22:35;;;;;;;18.23;6.97;;;7.70;99.90;;;;;;5032725;28;20211;-70
2022/01/28 14:25:03;;;;;;;23.93;7.17;;;7.60;99.90;;;;;;5025320;28;20256;-70
2022/01/28 14:27:58;;;;;;;19.10;6.90;;;7.60;99.90;;;;;;5012580;28;20225;-70
2022/01/28 14:30:35;;;;;;;21.07;6.57;;;7.50;99.90;;;;;;5012794;28;20233;-70
2022/01/28 14:33:02;;;;;;;20.90;7.23;;;7.70;99.90;;;;;;5013237;28;20213;-69
2022/01/28 14:35:30;;;;;;;24.10;7.30;;;7.50;99.90;;;;;;5012811;28;20212;-70
2022/01/28 14:37:57;;;;;;;22.03;7.40;;;7.40;99.90;;;;;;5013028;28;20307;-69
2022/01/28 14:40:24;;;;;;;20.20;7.33;;;7.20;99.90;;;;;;5012821;28;20212;-69
2022/01/28 14:42:51;;;;;;;22.70;7.80;;;7.20;99.90;;;;;;5012406;28;20214;-71
2022/01/28 14:45:17;;;;;;;19.30;6.90;;;7.30;99.90;;;;;;5012570;28;20316;-69
2022/01/28 14:47:44;;;;;;;21.63;7.20;;;7.20;99.90;;;;;;5012580;28;20562;-70
2022/01/28 14:50:12;;;;;;;22.53;8.60;;;7.10;99.90;;;;;;5028060;28;20228;-69
2022/01/28 14:52:40;;;;;;;20.17;8.50;;;7.20;99.90;;;;;;5032549;28;20224;-70
2022/01/28 14:55:08;;;;;;;18.77;7.80;;;7.10;99.90;;;;;;5024379;28;20220;-69
2022/01/28 14:57:35;;;;;;;19.80;7.27;;;7.20;99.90;;;;;;5012454;28;20232;-71
2022/01/28 15:00:02;;;;;;;18.47;7.43;;;7.30;99.90;;;;;;5022524;28;20586;-70
2022/01/28 15:02:31;;;;;;;19.53;8.27;;;7.30;99.90;;;;;;5029640;28;20223;-71
2022/01/28 15:05:00;;;;;;;23.63;8.33;;;7.20;99.90;;;;;;5017087;28;20213;-70
2022/01/28 15:07:31;;;;;;;22.60;8.27;;;7.40;99.90;;;;;;5012649;28;20291;-70
2022/01/28 15:10:00;;;;;;;17.60;8.10;;;7.40;99.90;;;;;;5012375;28;20237;-70
2022/01/28 15:12:29;;;;;;;23.77;8.37;;;7.40;99.90;;;;;;5011651;28;20304;-70
2022/01/28 15:14:56;;;;;;;21.10;8.20;;;7.40;99.90;;;;;;5012280;28;20297;-70
2022/01/28 15:17:23;;;;;;;20.00;7.87;;;7.40;99.90;;;;;;5023174;28;20221;-69
2022/01/28 15:19:51;;;;;;;22.20;8.70;;;7.50;99.90;;;;;;5031930;28;20204;-70
2022/01/28 15:22:19;;;;;;;26.53;8.40;;;7.50;99.90;;;;;;5032225;28;20236;-70
2022/01/28 15:24:47;;;;;;;21.90;7.63;;;7.50;99.90;;;;;;5027406;28;20617;-69
2022/01/28 15:27:16;;;;;;;26.23;9.50;;;7.50;99.90;;;;;;5011807;28;20655;-71
2022/01/28 15:29:59;;;;;;;21.90;7.90;;;7.50;99.90;;;;;;5012463;28;20287;-69
2022/01/28 15:37:52;;;;;;;27.97;9.50;;;7.80;99.90;;;;;;5002496;28;20206;-68
2022/01/28 15:40:19;;;;;;;23.30;8.77;;;7.90;99.90;;;;;;5012115;28;20217;-70
2022/01/28 15:42:50;;;;;;;17.60;9.07;;;7.80;99.90;;;;;;5011334;28;20202;-71
2022/01/28 15:45:17;;;;;;;18.07;8.33;;;7.80;99.90;;;;;;5012098;28;20216;-71
2022/01/28 15:47:44;;;;;;;17.73;8.47;;;8.00;99.90;;;;;;5012146;28;20210;-70
2022/01/28 15:50:12;;;;;;;25.20;9.13;;;7.90;99.90;;;;;;5013118;28;20985;-70
2022/01/28 15:52:39;;;;;;;21.53;9.57;;;7.90;99.90;;;;;;5031555;28;20262;-71
2022/01/28 15:55:07;;;;;;;21.57;8.83;;;8.00;99.90;;;;;;5024174;28;20208;-70
2022/01/28 15:57:35;;;;;;;23.43;9.10;;;7.90;99.90;;;;;;5011591;28;20225;-70
2022/01/28 16:00:05;;;;;;;21.27;9.17;;;8.10;99.90;;;;;;5012000;28;20206;-69
2022/01/28 16:02:31;;;;;;;25.60;9.87;;;8.00;99.90;;;;;;5022567;28;20205;-69
2022/01/28 16:04:58;;;;;;;20.20;9.00;;;7.90;99.90;;;;;;5024684;28;20208;-69
2022/01/28 16:07:25;;;;;;;21.20;8.97;;;7.90;99.90;;;;;;5011816;28;20312;-70
2022/01/28 16:09:56;;;;;;;26.13;9.33;;;7.70;99.90;;;;;;5011778;28;20229;-70
2022/01/28 16:12:47;;;;;;;19.97;8.87;;;7.60;99.90;;;;;;5011337;28;20212;-69
2022/01/28 16:15:23;;;;;;;20.00;8.80;;;7.70;99.90;;;;;;5015144;28;20205;-69
2022/01/28 16:17:50;;;;;;;22.97;9.03;;;7.60;99.90;;;;;;5025942;28;20201;-70
2022/01/28 16:20:17;;;;;;;21.93;9.10;;;7.60;99.90;;;;;;5031101;28;20212;-69
2022/01/28 16:22:43;;;;;;;22.57;9.00;;;7.40;99.90;;;;;;5031173;28;20212;-69
2022/01/28 16:25:11;;;;;;;24.07;9.10;;;7.30;99.90;;;;;;5022964;28;20205;-69
2022/01/28 16:27:38;;;;;;;24.37;8.70;;;7.20;99.90;;;;;;5011247;28;20954;-69
2022/01/28 16:30:08;;;;;;;17.40;8.47;;;7.20;99.90;;;;;;5011520;28;20728;-69
2022/01/28 16:32:40;;;;;;;22.97;8.80;;;7.10;99.90;;;;;;5010798;28;20210;-70
2022/01/28 16:35:07;;;;;;;27.63;8.37;;;7.00;99.90;;;;;;5014636;28;20770;-69
2022/01/28 16:37:34;;;;;;;20.00;9.23;;;7.00;99.90;;;;;;5009918;28;20215;-69
2022/01/28 16:40:07;;;;;;;25.57;10.27;;;6.90;99.90;;;;;;4991212;28;20209;-70
2022/01/28 16:42:39;;;;;;;22.67;9.13;;;6.80;99.90;;;;;;5010010;28;20237;-70
2022/01/28 16:45:06;;;;;;;24.00;8.83;;;6.70;99.90;;;;;;5010893;28;21076;-70
2022/01/28 16:47:33;;;;;;;26.07;9.70;;;6.60;99.90;;;;;;5010716;28;20228;-70
2022/01/28 16:50:02;;;;;;;26.73;9.83;;;6.60;99.90;;;;;;5012867;28;20244;-70
2022/01/28 16:52:29;;;;;;;29.00;9.27;;;6.50;99.90;;;;;;5014750;28;20211;-69
2022/01/28 16:54:58;;;;;;;25.30;10.53;;;6.60;99.90;;;;;;5011391;28;20325;-69
2022/01/28 16:57:24;;;;;;;34.07;10.33;;;6.70;99.90;;;;;;5011242;28;20720;-69
2022/01/28 16:59:51;;;;;;;25.83;10.33;;;6.70;99.90;;;;;;5013620;28;20523;-70
2022/01/28 17:02:18;;;;;;;21.20;9.60;;;6.70;99.90;;;;;;4999141;28;20203;-70
2022/01/28 17:04:45;;;;;;;24.67;9.77;;;6.60;99.90;;;;;;5000166;28;20214;-69
2022/01/28 17:07:14;;;;;;;31.47;11.73;;;6.50;99.90;;;;;;4996470;28;20226;-69
2022/01/28 17:09:48;;;;;;;25.80;10.27;;;6.50;99.90;;;;;;5001299;28;20229;-70
2022/01/28 17:14:59;;;;;;;24.37;10.23;;;6.50;99.90;;;;;;5006265;28;20644;-69
2022/01/28 17:17:26;;;;;;;28.73;10.87;;;6.70;99.90;;;;;;5005689;28;20225;-69
2022/01/28 17:19:53;;;;;;;26.27;9.93;;;6.60;99.90;;;;;;4995873;28;20214;-69
2022/01/28 17:22:21;;;;;;;29.37;10.70;;;6.70;99.90;;;;;;5000475;28;20213;-69
2022/01/28 17:24:48;;;;;;;30.10;10.67;;;6.70;99.90;;;;;;5013833;28;20208;-69
2022/01/28 17:27:15;;;;;;;27.87;10.60;;;6.70;99.90;;;;;;5019412;28;20220;-69
2022/01/28 17:29:43;;;;;;;32.93;11.43;;;6.70;99.90;;;;;;5024953;28;20754;-69
2022/01/28 17:32:11;;;;;;;27.47;10.93;;;6.60;99.90;;;;;;5004661;28;20209;-69
2022/01/28 17:34:37;;;;;;;25.40;10.67;;;6.70;99.90;;;;;;5013738;28;20206;-69
2022/01/28 17:37:04;;;;;;;28.30;10.53;;;6.60;99.90;;;;;;5013652;28;20237;-69
2022/01/28 17:39:32;;;;;;;32.17;11.33;;;6.50;99.90;;;;;;5013775;28;20215;-69
2022/01/28 17:41:59;;;;;;;28.53;11.87;;;6.40;99.90;;;;;;5008843;28;20203;-69
2022/01/28 17:44:26;;;;;;;30.40;10.93;;;6.30;99.90;;;;;;5016112;28;20205;-70
2022/01/28 17:46:53;;;;;;;25.30;10.67;;;6.30;99.90;;;;;;5013090;28;20229;-69
2022/01/28 17:49:22;;;;;;;27.77;11.57;;;6.30;99.90;;;;;;5010433;28;20219;-69
2022/01/28 17:51:48;;;;;;;37.00;10.80;;;6.30;99.90;;;;;;5013621;28;20304;-69
2022/01/28 17:54:15;;;;;;;26.70;9.83;;;6.20;99.90;;;;;;5007113;28;20206;-69
2022/01/28 17:56:43;;;;;;;28.73;11.47;;;6.10;99.90;;;;;;5012809;28;20227;-69
2022/01/28 17:59:10;;;;;;;24.10;11.47;;;6.10;99.90;;;;;;5017706;28;20208;-69
2022/01/28 18:01:37;;;;;;;29.87;11.40;;;6.10;99.90;;;;;;5010892;28;20233;-69
2022/01/28 18:04:04;;;;;;;30.47;11.33;;;5.90;99.90;;;;;;4992973;28;20205;-69
2022/01/28 18:06:31;;;;;;;25.67;10.83;;;5.90;99.90;;;;;;5012542;28;20229;-69
2022/01/28 18:08:58;;;;;;;32.53;10.77;;;5.90;99.90;;;;;;5013262;28;20249;-69
2022/01/28 18:11:25;;;;;;;23.43;10.43;;;6.00;99.90;;;;;;5012651;28;20794;-69
2022/01/28 18:13:53;;;;;;;25.33;10.57;;;5.90;99.90;;;;;;4995588;28;20205;-69
2022/01/28 18:16:20;;;;;;;27.33;10.20;;;5.80;99.90;;;;;;5019266;28;20221;-70
2022/01/28 18:18:47;;;;;;;24.93;11.13;;;5.90;99.90;;;;;;5004221;28;20212;-70
2022/01/28 18:21:14;;;;;;;34.23;11.03;;;5.80;99.90;;;;;;5008563;28;20210;-70
2022/01/28 18:23:41;;;;;;;38.73;15.13;;;5.90;99.90;;;;;;5007119;28;20301;-71
2022/01/28 18:26:08;;;;;;;29.93;12.60;;;5.90;99.90;;;;;;5009979;28;20225;-70
2022/01/28 18:28:35;;;;;;;25.93;10.97;;;5.90;99.90;;;;;;5008271;28;20208;-69
2022/01/28 18:31:03;;;;;;;26.57;10.77;;;6.00;99.90;;;;;;5007210;28;20602;-70
2022/01/28 18:33:30;;;;;;;25.07;10.23;;;6.00;99.90;;;;;;4997765;28;20205;-70
2022/01/28 18:35:57;;;;;;;26.50;11.20;;;6.00;99.90;;;;;;5011231;28;20235;-70
2022/01/28 18:38:23;;;;;;;23.70;9.93;;;5.90;99.90;;;;;;5000683;28;20213;-70
2022/01/28 18:40:53;;;;;;;25.17;10.20;;;5.90;99.90;;;;;;5005544;28;20217;-69
2022/01/28 18:43:21;;;;;;;26.37;10.23;;;6.00;99.90;;;;;;5003716;28;20206;-70
2022/01/28 18:45:49;;;;;;;24.63;10.23;;;6.00;99.90;;;;;;5008684;28;20225;-70
2022/01/28 18:48:17;;;;;;;22.50;10.53;;;6.00;99.90;;;;;;5012402;28;20661;-69
2022/01/28 18:50:44;;;;;;;24.97;10.60;;;6.00;99.90;;;;;;5006777;28;20237;-70
2022/01/28 18:53:11;;;;;;;31.83;11.27;;;6.00;99.90;;;;;;5005509;28;20559;-70
2022/01/28 18:55:37;;;;;;;27.20;10.37;;;5.90;99.90;;;;;;5000741;28;20222;-69
2022/01/28 18:58:05;;;;;;;26.10;10.53;;;5.90;99.90;;;;;;5001321;28;20688;-70
2022/01/28 19:00:32;;;;;;;23.20;10.60;;;5.90;99.90;;;;;;5007215;28;20210;-69
2022/01/28 19:02:59;;;;;;;29.37;10.87;;;5.90;99.90;;;;;;5010213;28;20210;-69
2022/01/28 19:05:27;;;;;;;28.43;11.17;;;5.80;99.90;;;;;;5012423;28;20724;-69
2022/01/28 19:07:54;;;;;;;30.67;11.27;;;5.80;99.90;;;;;;5008672;28;20209;-69
2022/01/28 19:10:21;;;;;;;22.40;9.37;;;5.90;99.90;;;;;;5008171;28;20236;-70
2022/01/28 19:12:51;;;;;;;32.30;12.50;;;5.90;99.90;;;;;;5005920;28;20215;-69
2022/01/28 19:15:18;;;;;;;26.30;10.00;;;5.90;99.90;;;;;;5008359;28;20206;-69
2022/01/28 19:17:46;;;;;;;27.97;10.20;;;5.90;99.90;;;;;;5002841;28;20202;-69
2022/01/28 19:20:13;;;;;;;29.27;10.53;;;5.90;99.90;;;;;;5005286;28;20666;-69
2022/01/28 19:22:43;;;;;;;23.90;9.23;;;5.90;99.90;;;;;;5016417;28;20205;-69
2022/01/28 19:25:10;;;;;;;26.03;9.47;;;5.90;99.90;;;;;;5003964;28;20293;-69
2022/01/28 19:27:38;;;;;;;28.53;10.07;;;5.80;99.90;;;;;;5008141;28;20206;-69
2022/01/28 19:30:06;;;;;;;22.60;10.00;;;5.80;99.90;;;;;;5007659;28;20240;-69
2022/01/28 19:32:33;;;;;;;32.77;12.17;;;5.80;99.90;;;;;;5008445;28;20289;-69
2022/01/28 19:35:01;;;;;;;24.30;9.43;;;5.90;99.90;;;;;;5011149;28;20205;-69
2022/01/28 19:37:28;;;;;;;27.93;10.67;;;5.70;99.90;;;;;;5007015;28;20233;-70
2022/01/28 19:39:56;;;;;;;25.90;11.03;;;5.70;99.90;;;;;;5009522;28;20673;-69
2022/01/28 19:42:24;;;;;;;35.90;13.00;;;5.70;99.90;;;;;;5007985;28;20209;-68
2022/01/28 19:44:50;;;;;;;31.57;11.13;;;5.80;99.90;;;;;;5004946;28;20716;-68
2022/01/28 19:47:17;;;;;;;25.47;9.57;;;5.80;99.90;;;;;;5006858;28;20226;-68
2022/01/28 19:49:45;;;;;;;20.43;8.77;;;5.90;99.90;;;;;;5005030;28;20208;-68
2022/01/28 19:52:12;;;;;;;28.67;10.57;;;5.80;99.90;;;;;;5008138;28;20241;-68
2022/01/28 19:54:39;;;;;;;24.33;10.10;;;5.90;99.90;;;;;;5008678;28;20223;-68
2022/01/28 19:57:08;;;;;;;38.23;12.97;;;5.90;99.90;;;;;;5009808;28;20232;-68
2022/01/28 19:59:35;;;;;;;23.33;9.87;;;5.90;99.90;;;;;;5008595;28;20212;-69
2022/01/28 20:02:02;;;;;;;29.47;10.23;;;5.90;99.90;;;;;;5007172;28;20216;-69
2022/01/28 20:04:29;;;;;;;28.30;10.77;;;6.00;99.90;;;;;;5009534;28;20197;-68
2022/01/28 20:06:55;;;;;;;24.37;10.33;;;5.90;99.90;;;;;;5011437;28;20707;-68
2022/01/28 20:09:22;;;;;;;21.40;9.30;;;6.00;99.90;;;;;;5004769;28;20749;-68
2022/01/28 20:11:49;;;;;;;24.77;10.07;;;5.90;99.90;;;;;;5001359;28;20232;-68
2022/01/28 20:14:18;;;;;;;28.10;10.03;;;5.90;99.90;;;;;;5009942;28;20658;-68
2022/01/28 20:16:45;;;;;;;24.33;10.97;;;5.90;99.90;;;;;;5010099;28;20233;-68
2022/01/28 20:19:12;;;;;;;25.97;10.17;;;5.90;99.90;;;;;;5009509;28;20228;-68
2022/01/28 20:21:39;;;;;;;24.47;9.80;;;6.00;99.90;;;;;;5014153;28;20202;-68
2022/01/28 20:24:06;;;;;;;26.07;9.73;;;6.00;99.90;;;;;;5011001;28;20209;-69
2022/01/28 20:26:33;;;;;;;27.93;10.37;;;6.10;99.90;;;;;;5012951;28;20746;-69
2022/01/28 20:29:00;;;;;;;27.43;9.73;;;6.10;99.90;;;;;;5012825;28;20213;-69
2022/01/28 20:31:30;;;;;;;31.23;10.17;;;6.00;99.90;;;;;;5009628;28;20233;-69
2022/01/28 20:33:57;;;;;;;28.10;10.80;;;6.10;99.90;;;;;;5012785;28;20205;-69
2022/01/28 20:36:23;;;;;;;32.37;10.67;;;6.10;99.90;;;;;;5016004;28;20597;-69
2022/01/28 20:38:50;;;;;;;29.87;10.53;;;6.10;99.90;;;;;;5010427;28;20201;-69
2022/01/28 20:41:17;;;;;;;28.57;9.53;;;6.10;99.90;;;;;;5013655;28;20202;-69
2022/01/28 20:43:44;;;;;;;28.80;10.23;;;6.10;99.90;;;;;;5013681;28;20213;-69
2022/01/28 20:46:12;;;;;;;28.60;9.97;;;6.10;99.90;;;;;;5012979;28;20225;-69
2022/01/28 20:48:43;;;;;;;24.77;10.47;;;6.00;99.90;;;;;;5009680;28;20206;-69
2022/01/28 20:51:11;;;;;;;28.23;10.03;;;6.10;99.90;;;;;;5012369;28;20288;-69
2022/01/28 20:53:38;;;;;;;27.57;10.17;;;6.10;99.90;;;;;;5005123;28;20202;-69
2022/01/28 20:56:05;;;;;;;24.93;8.80;;;6.10;99.90;;;;;;5010300;28;20237;-69
2022/01/28 20:58:32;;;;;;;28.70;9.90;;;6.30;99.90;;;;;;5009465;28;20201;-69
2022/01/28 21:00:59;;;;;;;29.33;11.33;;;6.30;99.90;;;;;;5009246;28;20211;-69
2022/01/28 21:03:27;;;;;;;27.90;9.57;;;6.40;99.90;;;;;;5006031;28;20206;-69
2022/01/28 21:05:57;;;;;;;25.27;9.80;;;6.40;99.90;;;;;;5014065;28;20225;-70
2022/01/28 21:08:24;;;;;;;25.63;9.80;;;6.40;99.90;;;;;;5007483;28;20206;-69
2022/01/28 21:10:51;;;;;;;21.70;9.93;;;6.40;99.90;;;;;;5011739;28;20616;-69
2022/01/28 21:13:18;;;;;;;25.93;10.03;;;6.40;99.90;;;;;;5018156;28;20206;-69
2022/01/28 21:15:46;;;;;;;26.93;9.77;;;6.40;99.90;;;;;;5010805;28;20732;-69
2022/01/28 21:18:12;;;;;;;25.90;10.37;;;6.50;99.90;;;;;;5009163;28;20284;-69
2022/01/28 21:20:39;;;;;;;24.77;10.27;;;6.60;99.90;;;;;;5011150;28;20210;-69
2022/01/28 21:23:08;;;;;;;24.73;9.87;;;6.50;99.90;;;;;;5006009;28;20206;-68
2022/01/28 21:25:35;;;;;;;32.03;11.37;;;6.50;99.90;;;;;;5006686;28;20226;-68
2022/01/28 21:28:01;;;;;;;27.53;9.87;;;6.60;99.90;;;;;;5009203;28;20203;-69
2022/01/28 21:30:29;;;;;;;23.57;9.90;;;6.60;99.90;;;;;;5014072;28;20202;-69
2022/01/28 21:32:55;;;;;;;24.40;10.13;;;6.60;99.90;;;;;;5009150;28;20218;-69
2022/01/28 21:35:22;;;;;;;26.90;10.07;;;6.60;99.90;;;;;;5011089;28;20202;-69
2022/01/28 21:37:49;;;;;;;24.30;9.97;;;6.50;99.90;;;;;;5003831;28;20205;-68
2022/01/28 21:40:17;;;;;;;29.97;10.53;;;6.60;99.90;;;;;;5009745;28;20213;-69
2022/01/28 21:42:44;;;;;;;26.20;10.23;;;6.70;99.90;;;;;;5004735;28;20211;-69
2022/01/28 21:45:11;;;;;;;25.53;10.40;;;6.60;99.90;;;;;;5013311;28;20683;-69
2022/01/28 21:47:38;;;;;;;25.77;9.93;;;6.40;99.90;;;;;;5002266;28;20249;-69
2022/01/28 21:50:06;;;;;;;32.30;10.40;;;6.40;99.90;;;;;;5008187;28;20206;-69
2022/01/28 21:52:32;;;;;;;37.93;11.37;;;6.40;99.90;;;;;;5007944;28;20234;-69
2022/01/28 21:55:01;;;;;;;26.70;10.10;;;6.40;99.90;;;;;;5011143;28;20228;-69
2022/01/28 21:57:29;;;;;;;24.37;9.67;;;6.40;99.90;;;;;;5010930;28;20229;-70
2022/01/28 21:59:56;;;;;;;28.57;11.07;;;6.40;99.90;;;;;;5008526;28;20655;-69
2022/01/28 22:02:23;;;;;;;23.67;10.10;;;6.30;99.90;;;;;;5010576;28;20577;-70
2022/01/28 22:04:50;;;;;;;22.27;9.83;;;6.20;99.90;;;;;;5013609;28;20212;-70
2022/01/28 22:07:18;;;;;;;25.40;10.83;;;6.20;99.90;;;;;;5009722;28;20229;-69
2022/01/28 22:09:45;;;;;;;31.47;10.93;;;6.30;99.90;;;;;;5013117;28;20244;-69
2022/01/28 22:12:13;;;;;;;25.73;10.40;;;6.40;99.90;;;;;;5007925;28;20240;-69
2022/01/28 22:14:41;;;;;;;28.87;11.23;;;6.50;99.90;;;;;;5008858;28;20232;-71
2022/01/28 22:17:08;;;;;;;25.60;10.27;;;6.50;99.90;;;;;;5012030;28;20504;-70
2022/01/28 22:19:35;;;;;;;23.03;8.97;;;6.50;99.90;;;;;;5004441;28;20229;-69
2022/01/28 22:22:02;;;;;;;25.23;10.77;;;6.50;99.90;;;;;;5010798;28;20214;-70
2022/01/28 22:24:29;;;;;;;28.00;11.03;;;6.50;99.90;;;;;;5009870;28;20666;-70
2022/01/28 22:26:56;;;;;;;24.53;10.23;;;6.40;99.90;;;;;;5012083;28;20222;-70
